sensor_id;sensor_type;location;lat;lon;timestamp;pressure;altitude;pressure_sealevel;temperature;humidity
64025;BME280;50266;57.446;26.936;2024-01-06T00:00:13;97569.5;;;-15.54;100.0
64025;BME280;50266;57.446;26.936;2024-01-06T00:01:13;97574.96;;;-15.55;100.0
64025;BME280;50266;57.446;26.936;2024-01-06T00:02:13;97574.7;;;-15.55;100.0
64025;BME280;50266;57.446;26.936;2024-01-06T00:03:13;97574.39;;;-15.58;100.0
64025;BME280;50266;57.446;26.936;2024-01-06T00:04:13;97578.34;;;-15.57;100.0
64025;BME280;50266;57.446;26.936;2024-01-06T00:05:13;97583.27;;;-15.57;100.0
64025;BME280;50266;57.446;26.936;2024-01-06T00:06:13;97580.09;;;-15.57;100.0
64025;BME280;50266;57.446;26.936;2024-01-06T00:07:13;97576.33;;;-15.57;100.0
64025;BME280;50266;57.446;26.936;2024-01-06T00:08:13;97578.58;;;-15.58;100.0
64025;BME280;50266;57.446;26.936;2024-01-06T00:09:13;97576.39;;;-15.6;100.0
64025;BME280;50266;57.446;26.936;2024-01-06T00:10:13;97578.53;;;-15.58;100.0
64025;BME280;50266;57.446;26.936;2024-01-06T00:11:13;97581.08;;;-15.58;100.0
64025;BME280;50266;57.446;26.936;2024-01-06T00:12:13;97580.12;;;-15.59;100.0
64025;BME280;50266;57.446;26.936;2024-01-06T00:13:13;97578.16;;;-15.58;100.0
64025;BME280;50266;57.446;26.936;2024-01-06T00:14:13;97579.22;;;-15.58;100.0
64025;BME280;50266;57.446;26.936;2024-01-06T00:15:13;97580.44;;;-15.59;100.0
64025;BME280;50266;57.446;26.936;2024-01-06T00:16:16;97582.24;;;-15.58;100.0
64025;BME280;50266;57.446;26.936;2024-01-06T00:17:13;97584.19;;;-15.56;100.0
64025;BME280;50266;57.446;26.936;2024-01-06T00:18:13;97593.3;;;-15.56;100.0
64025;BME280;50266;57.446;26.936;2024-01-06T00:19:13;97598.56;;;-15.55;100.0
64025;BME280;50266;57.446;26.936;2024-01-06T00:20:13;97592.8;;;-15.58;100.0
64025;BME280;50266;57.446;26.936;2024-01-06T00:21:14;97595.32;;;-15.56;100.0
64025;BME280;50266;57.446;26.936;2024-01-06T00:22:13;97594.95;;;-15.52;100.0
64025;BME280;50266;57.446;26.936;2024-01-06T00:23:13;97594.52;;;-15.52;100.0
64025;BME280;50266;57.446;26.936;2024-01-06T00:24:14;97592.34;;;-15.53;100.0
64025;BME280;50266;57.446;26.936;2024-01-06T00:25:14;97596.22;;;-15.56;100.0
64025;BME280;50266;57.446;26.936;2024-01-06T00:26:14;97598.71;;;-15.57;100.0
64025;BME280;50266;57.446;26.936;2024-01-06T00:27:14;97596.43;;;-15.57;100.0
64025;BME280;50266;57.446;26.936;2024-01-06T00:28:14;97597.29;;;-15.56;100.0
64025;BME280;50266;57.446;26.936;2024-01-06T00:29:14;97601.14;;;-15.54;100.0
64025;BME280;50266;57.446;26.936;2024-01-06T00:30:14;97605.19;;;-15.52;100.0
64025;BME280;50266;57.446;26.936;2024-01-06T00:31:14;97604.23;;;-15.51;100.0
64025;BME280;50266;57.446;26.936;2024-01-06T00:32:14;97601.7;;;-15.5;100.0
64025;BME280;50266;57.446;26.936;2024-01-06T00:33:14;97603.72;;;-15.49;100.0
64025;BME280;50266;57.446;26.936;2024-01-06T00:34:14;97600.3;;;-15.53;100.0
64025;BME280;50266;57.446;26.936;2024-01-06T00:35:14;97597.67;;;-15.58;100.0
64025;BME280;50266;57.446;26.936;2024-01-06T00:36:14;97603.95;;;-15.63;100.0
64025;BME280;50266;57.446;26.936;2024-01-06T00:37:14;97599.14;;;-15.6;100.0
64025;BME280;50266;57.446;26.936;2024-01-06T00:38:14;97604.7;;;-15.57;100.0
64025;BME280;50266;57.446;26.936;2024-01-06T00:39:14;97603.86;;;-15.56;100.0
64025;BME280;50266;57.446;26.936;2024-01-06T00:40:14;97604.61;;;-15.6;100.0
64025;BME280;50266;57.446;26.936;2024-01-06T00:41:14;97603.44;;;-15.56;100.0
64025;BME280;50266;57.446;26.936;2024-01-06T00:42:14;97604.5;;;-15.55;100.0
64025;BME280;50266;57.446;26.936;2024-01-06T00:43:14;97603.95;;;-15.53;100.0
64025;BME280;50266;57.446;26.936;2024-01-06T00:44:14;97604.41;;;-15.48;100.0
64025;BME280;50266;57.446;26.936;2024-01-06T00:45:14;97601.97;;;-15.48;100.0
64025;BME280;50266;57.446;26.936;2024-01-06T00:46:14;97601.87;;;-15.48;100.0
64025;BME280;50266;57.446;26.936;2024-01-06T00:47:14;97604.45;;;-15.5;100.0
64025;BME280;50266;57.446;26.936;2024-01-06T00:48:14;97606.27;;;-15.48;100.0
64025;BME280;50266;57.446;26.936;2024-01-06T00:49:14;97607.41;;;-15.52;100.0
64025;BME280;50266;57.446;26.936;2024-01-06T00:50:14;97611.24;;;-15.55;100.0
64025;BME280;50266;57.446;26.936;2024-01-06T00:51:14;97610.7;;;-15.56;100.0
64025;BME280;50266;57.446;26.936;2024-01-06T00:52:14;97612.0;;;-15.58;100.0
64025;BME280;50266;57.446;26.936;2024-01-06T00:53:14;97608.91;;;-15.59;100.0
64025;BME280;50266;57.446;26.936;2024-01-06T00:54:14;97610.33;;;-15.56;100.0
64025;BME280;50266;57.446;26.936;2024-01-06T00:55:14;97610.66;;;-15.55;100.0
64025;BME280;50266;57.446;26.936;2024-01-06T00:56:14;97612.88;;;-15.56;100.0
64025;BME280;50266;57.446;26.936;2024-01-06T00:57:14;97610.59;;;-15.56;100.0
64025;BME280;50266;57.446;26.936;2024-01-06T00:58:14;97611.64;;;-15.54;100.0
64025;BME280;50266;57.446;26.936;2024-01-06T00:59:19;97612.61;;;-15.51;100.0
64025;BME280;50266;57.446;26.936;2024-01-06T01:00:16;97612.16;;;-15.48;100.0
64025;BME280;50266;57.446;26.936;2024-01-06T01:01:16;97614.44;;;-15.49;100.0
64025;BME280;50266;57.446;26.936;2024-01-06T01:02:16;97617.3;;;-15.48;100.0
64025;BME280;50266;57.446;26.936;2024-01-06T01:03:16;97611.44;;;-15.52;100.0
64025;BME280;50266;57.446;26.936;2024-01-06T01:04:16;97612.86;;;-15.53;100.0
64025;BME280;50266;57.446;26.936;2024-01-06T01:05:16;97617.55;;;-15.55;100.0
64025;BME280;50266;57.446;26.936;2024-01-06T01:06:16;97618.23;;;-15.55;100.0
64025;BME280;50266;57.446;26.936;2024-01-06T01:07:16;97620.5;;;-15.53;100.0
64025;BME280;50266;57.446;26.936;2024-01-06T01:08:16;97619.45;;;-15.57;100.0
64025;BME280;50266;57.446;26.936;2024-01-06T01:09:16;97625.47;;;-15.58;100.0
64025;BME280;50266;57.446;26.936;2024-01-06T01:10:16;97635.31;;;-15.56;100.0
64025;BME280;50266;57.446;26.936;2024-01-06T01:11:16;97632.62;;;-15.59;100.0
64025;BME280;50266;57.446;26.936;2024-01-06T01:12:16;97636.87;;;-15.58;100.0
64025;BME280;50266;57.446;26.936;2024-01-06T01:13:16;97632.92;;;-15.56;100.0
64025;BME280;50266;57.446;26.936;2024-01-06T01:14:16;97632.14;;;-15.55;100.0
64025;BME280;50266;57.446;26.936;2024-01-06T01:15:16;97634.22;;;-15.54;100.0
64025;BME280;50266;57.446;26.936;2024-01-06T01:16:16;97638.17;;;-15.52;100.0
64025;BME280;50266;57.446;26.936;2024-01-06T01:17:16;97637.0;;;-15.52;100.0
64025;BME280;50266;57.446;26.936;2024-01-06T01:18:16;97639.73;;;-15.49;100.0
64025;BME280;50266;57.446;26.936;2024-01-06T01:19:16;97642.12;;;-15.49;100.0
64025;BME280;50266;57.446;26.936;2024-01-06T01:20:16;97640.09;;;-15.54;100.0
64025;BME280;50266;57.446;26.936;2024-01-06T01:21:16;97641.47;;;-15.6;100.0
64025;BME280;50266;57.446;26.936;2024-01-06T01:22:16;97641.88;;;-15.61;100.0
64025;BME280;50266;57.446;26.936;2024-01-06T01:23:16;97643.39;;;-15.59;100.0
64025;BME280;50266;57.446;26.936;2024-01-06T01:24:16;97641.67;;;-15.61;100.0
64025;BME280;50266;57.446;26.936;2024-01-06T01:25:16;97647.8;;;-15.58;100.0
64025;BME280;50266;57.446;26.936;2024-01-06T01:26:16;97647.52;;;-15.59;100.0
64025;BME280;50266;57.446;26.936;2024-01-06T01:27:16;97641.95;;;-15.59;100.0
64025;BME280;50266;57.446;26.936;2024-01-06T01:28:16;97647.36;;;-15.6;100.0
64025;BME280;50266;57.446;26.936;2024-01-06T01:29:16;97646.25;;;-15.58;100.0
64025;BME280;50266;57.446;26.936;2024-01-06T01:30:16;97652.19;;;-15.54;100.0
64025;BME280;50266;57.446;26.936;2024-01-06T01:31:16;97651.64;;;-15.52;100.0
64025;BME280;50266;57.446;26.936;2024-01-06T01:32:16;97655.42;;;-15.51;100.0
64025;BME280;50266;57.446;26.936;2024-01-06T01:33:16;97653.89;;;-15.5;100.0
64025;BME280;50266;57.446;26.936;2024-01-06T01:34:16;97655.5;;;-15.48;100.0
64025;BME280;50266;57.446;26.936;2024-01-06T01:35:16;97654.86;;;-15.47;100.0
64025;BME280;50266;57.446;26.936;2024-01-06T01:36:16;97656.0;;;-15.44;100.0
64025;BME280;50266;57.446;26.936;2024-01-06T01:37:16;97654.73;;;-15.44;100.0
64025;BME280;50266;57.446;26.936;2024-01-06T01:38:16;97657.31;;;-15.46;100.0
64025;BME280;50266;57.446;26.936;2024-01-06T01:39:16;97657.04;;;-15.47;100.0
64025;BME280;50266;57.446;26.936;2024-01-06T01:40:16;97659.22;;;-15.47;100.0
64025;BME280;50266;57.446;26.936;2024-01-06T01:41:16;97656.71;;;-15.48;100.0
64025;BME280;50266;57.446;26.936;2024-01-06T01:42:16;97660.81;;;-15.47;100.0
64025;BME280;50266;57.446;26.936;2024-01-06T01:43:17;97656.27;;;-15.5;100.0
64025;BME280;50266;57.446;26.936;2024-01-06T01:44:16;97656.4;;;-15.48;100.0
64025;BME280;50266;57.446;26.936;2024-01-06T01:45:16;97657.17;;;-15.43;100.0
64025;BME280;50266;57.446;26.936;2024-01-06T01:46:16;97659.62;;;-15.41;100.0
64025;BME280;50266;57.446;26.936;2024-01-06T01:47:17;97664.48;;;-15.44;100.0
64025;BME280;50266;57.446;26.936;2024-01-06T01:48:17;97663.14;;;-15.47;100.0
64025;BME280;50266;57.446;26.936;2024-01-06T01:49:16;97668.49;;;-15.48;100.0
64025;BME280;50266;57.446;26.936;2024-01-06T01:50:17;97663.02;;;-15.49;100.0
64025;BME280;50266;57.446;26.936;2024-01-06T01:51:17;97665.2;;;-15.48;100.0
64025;BME280;50266;57.446;26.936;2024-01-06T01:52:17;97663.98;;;-15.49;100.0
64025;BME280;50266;57.446;26.936;2024-01-06T01:53:17;97670.08;;;-15.49;100.0
64025;BME280;50266;57.446;26.936;2024-01-06T01:54:17;97669.22;;;-15.49;100.0
64025;BME280;50266;57.446;26.936;2024-01-06T01:55:17;97669.77;;;-15.47;100.0
64025;BME280;50266;57.446;26.936;2024-01-06T01:56:17;97671.55;;;-15.49;100.0
64025;BME280;50266;57.446;26.936;2024-01-06T01:57:17;97672.76;;;-15.51;100.0
64025;BME280;50266;57.446;26.936;2024-01-06T01:58:17;97676.89;;;-15.53;100.0
64025;BME280;50266;57.446;26.936;2024-01-06T01:59:17;97676.53;;;-15.51;100.0
64025;BME280;50266;57.446;26.936;2024-01-06T02:00:17;97676.89;;;-15.52;100.0
64025;BME280;50266;57.446;26.936;2024-01-06T02:01:17;97679.55;;;-15.51;100.0
64025;BME280;50266;57.446;26.936;2024-01-06T02:02:17;97681.56;;;-15.52;100.0
64025;BME280;50266;57.446;26.936;2024-01-06T02:03:17;97682.55;;;-15.53;100.0
64025;BME280;50266;57.446;26.936;2024-01-06T02:04:17;97683.95;;;-15.52;100.0
64025;BME280;50266;57.446;26.936;2024-01-06T02:05:17;97679.86;;;-15.53;100.0
64025;BME280;50266;57.446;26.936;2024-01-06T02:06:17;97687.2;;;-15.5;100.0
64025;BME280;50266;57.446;26.936;2024-01-06T02:07:17;97682.95;;;-15.51;100.0
64025;BME280;50266;57.446;26.936;2024-01-06T02:08:17;97676.94;;;-15.53;100.0
64025;BME280;50266;57.446;26.936;2024-01-06T02:09:17;97684.5;;;-15.54;100.0
64025;BME280;50266;57.446;26.936;2024-01-06T02:10:17;97681.12;;;-15.61;100.0
64025;BME280;50266;57.446;26.936;2024-01-06T02:11:17;97679.11;;;-15.61;100.0
64025;BME280;50266;57.446;26.936;2024-01-06T02:12:17;97678.39;;;-15.66;100.0
64025;BME280;50266;57.446;26.936;2024-01-06T02:13:17;97677.59;;;-15.66;100.0
64025;BME280;50266;57.446;26.936;2024-01-06T02:14:17;97681.84;;;-15.64;100.0
64025;BME280;50266;57.446;26.936;2024-01-06T02:15:17;97683.84;;;-15.66;100.0
64025;BME280;50266;57.446;26.936;2024-01-06T02:16:17;97683.81;;;-15.63;100.0
64025;BME280;50266;57.446;26.936;2024-01-06T02:17:17;97685.91;;;-15.61;100.0
64025;BME280;50266;57.446;26.936;2024-01-06T02:18:17;97686.22;;;-15.57;100.0
64025;BME280;50266;57.446;26.936;2024-01-06T02:19:17;97686.3;;;-15.54;100.0
64025;BME280;50266;57.446;26.936;2024-01-06T02:20:17;97691.0;;;-15.53;100.0
64025;BME280;50266;57.446;26.936;2024-01-06T02:21:17;97694.57;;;-15.54;100.0
64025;BME280;50266;57.446;26.936;2024-01-06T02:22:17;97699.66;;;-15.6;100.0
64025;BME280;50266;57.446;26.936;2024-01-06T02:23:17;97701.93;;;-15.6;100.0
64025;BME280;50266;57.446;26.936;2024-01-06T02:24:17;97699.48;;;-15.66;100.0
64025;BME280;50266;57.446;26.936;2024-01-06T02:25:17;97700.62;;;-15.7;100.0
64025;BME280;50266;57.446;26.936;2024-01-06T02:26:17;97702.52;;;-15.66;100.0
64025;BME280;50266;57.446;26.936;2024-01-06T02:27:17;97699.06;;;-15.67;100.0
64025;BME280;50266;57.446;26.936;2024-01-06T02:28:17;97698.19;;;-15.69;100.0
64025;BME280;50266;57.446;26.936;2024-01-06T02:29:17;97701.83;;;-15.72;100.0
64025;BME280;50266;57.446;26.936;2024-01-06T02:30:17;97704.45;;;-15.75;100.0
64025;BME280;50266;57.446;26.936;2024-01-06T02:31:17;97702.52;;;-15.77;100.0
64025;BME280;50266;57.446;26.936;2024-01-06T02:32:17;97703.16;;;-15.8;100.0
64025;BME280;50266;57.446;26.936;2024-01-06T02:33:17;97703.45;;;-15.78;100.0
64025;BME280;50266;57.446;26.936;2024-01-06T02:34:17;97707.61;;;-15.77;100.0
64025;BME280;50266;57.446;26.936;2024-01-06T02:35:18;97710.41;;;-15.78;100.0
64025;BME280;50266;57.446;26.936;2024-01-06T02:36:18;97708.2;;;-15.76;100.0
64025;BME280;50266;57.446;26.936;2024-01-06T02:37:18;97711.45;;;-15.74;100.0
64025;BME280;50266;57.446;26.936;2024-01-06T02:38:18;97710.38;;;-15.76;100.0
64025;BME280;50266;57.446;26.936;2024-01-06T02:39:18;97720.38;;;-15.81;100.0
64025;BME280;50266;57.446;26.936;2024-01-06T02:40:18;97718.45;;;-15.84;100.0
64025;BME280;50266;57.446;26.936;2024-01-06T02:41:18;97715.11;;;-15.84;100.0
64025;BME280;50266;57.446;26.936;2024-01-06T02:42:18;97719.1;;;-15.82;100.0
64025;BME280;50266;57.446;26.936;2024-01-06T02:43:18;97724.16;;;-15.85;100.0
64025;BME280;50266;57.446;26.936;2024-01-06T02:44:18;97721.73;;;-15.84;100.0
64025;BME280;50266;57.446;26.936;2024-01-06T02:45:18;97721.0;;;-15.89;100.0
64025;BME280;50266;57.446;26.936;2024-01-06T02:46:18;97726.33;;;-15.92;100.0
64025;BME280;50266;57.446;26.936;2024-01-06T02:47:18;97728.5;;;-15.96;100.0
64025;BME280;50266;57.446;26.936;2024-01-06T02:48:18;97728.55;;;-16.01;100.0
64025;BME280;50266;57.446;26.936;2024-01-06T02:49:18;97728.2;;;-16.03;100.0
64025;BME280;50266;57.446;26.936;2024-01-06T02:50:18;97731.09;;;-16.06;100.0
64025;BME280;50266;57.446;26.936;2024-01-06T02:51:18;97734.18;;;-16.09;100.0
64025;BME280;50266;57.446;26.936;2024-01-06T02:52:18;97733.84;;;-16.11;100.0
64025;BME280;50266;57.446;26.936;2024-01-06T02:53:18;97735.55;;;-16.14;100.0
64025;BME280;50266;57.446;26.936;2024-01-06T02:54:18;97736.48;;;-16.17;100.0
64025;BME280;50266;57.446;26.936;2024-01-06T02:55:18;97744.16;;;-16.21;100.0
64025;BME280;50266;57.446;26.936;2024-01-06T02:56:18;97737.88;;;-16.23;100.0
64025;BME280;50266;57.446;26.936;2024-01-06T02:57:18;97736.84;;;-16.25;100.0
64025;BME280;50266;57.446;26.936;2024-01-06T02:58:18;97737.52;;;-16.22;100.0
64025;BME280;50266;57.446;26.936;2024-01-06T02:59:18;97738.0;;;-16.21;100.0
64025;BME280;50266;57.446;26.936;2024-01-06T03:00:18;97742.62;;;-16.18;100.0
64025;BME280;50266;57.446;26.936;2024-01-06T03:01:18;97738.48;;;-16.25;100.0
64025;BME280;50266;57.446;26.936;2024-01-06T03:02:18;97737.7;;;-16.29;100.0
64025;BME280;50266;57.446;26.936;2024-01-06T03:03:18;97744.8;;;-16.29;100.0
64025;BME280;50266;57.446;26.936;2024-01-06T03:04:18;97744.91;;;-16.28;100.0
64025;BME280;50266;57.446;26.936;2024-01-06T03:05:18;97745.68;;;-16.26;100.0
64025;BME280;50266;57.446;26.936;2024-01-06T03:06:18;97749.34;;;-16.25;100.0
64025;BME280;50266;57.446;26.936;2024-01-06T03:07:18;97746.84;;;-16.27;100.0
64025;BME280;50266;57.446;26.936;2024-01-06T03:08:18;97752.3;;;-16.31;100.0
64025;BME280;50266;57.446;26.936;2024-01-06T03:09:18;97755.77;;;-16.33;100.0
64025;BME280;50266;57.446;26.936;2024-01-06T03:10:19;97759.59;;;-16.33;100.0
64025;BME280;50266;57.446;26.936;2024-01-06T03:11:18;97760.09;;;-16.35;100.0
64025;BME280;50266;57.446;26.936;2024-01-06T03:12:18;97759.98;;;-16.4;100.0
64025;BME280;50266;57.446;26.936;2024-01-06T03:13:18;97761.88;;;-16.43;100.0
64025;BME280;50266;57.446;26.936;2024-01-06T03:14:18;97765.38;;;-16.47;100.0
64025;BME280;50266;57.446;26.936;2024-01-06T03:15:18;97764.25;;;-16.48;100.0
64025;BME280;50266;57.446;26.936;2024-01-06T03:16:23;97762.32;;;-16.5;100.0
64025;BME280;50266;57.446;26.936;2024-01-06T03:17:20;97757.61;;;-16.5;100.0
64025;BME280;50266;57.446;26.936;2024-01-06T03:18:20;97761.34;;;-16.56;100.0
64025;BME280;50266;57.446;26.936;2024-01-06T03:19:20;97763.74;;;-16.59;100.0
64025;BME280;50266;57.446;26.936;2024-01-06T03:20:20;97765.35;;;-16.61;100.0
64025;BME280;50266;57.446;26.936;2024-01-06T03:21:20;97763.8;;;-16.67;100.0
64025;BME280;50266;57.446;26.936;2024-01-06T03:22:20;97770.61;;;-16.72;100.0
64025;BME280;50266;57.446;26.936;2024-01-06T03:23:20;97769.27;;;-16.74;100.0
64025;BME280;50266;57.446;26.936;2024-01-06T03:24:23;97773.37;;;-16.76;100.0
64025;BME280;50266;57.446;26.936;2024-01-06T03:25:20;97769.66;;;-16.8;100.0
64025;BME280;50266;57.446;26.936;2024-01-06T03:26:20;97775.99;;;-16.83;100.0
64025;BME280;50266;57.446;26.936;2024-01-06T03:27:20;97771.03;;;-16.86;100.0
64025;BME280;50266;57.446;26.936;2024-01-06T03:28:20;97779.09;;;-16.89;100.0
64025;BME280;50266;57.446;26.936;2024-01-06T03:29:20;97778.91;;;-16.9;100.0
64025;BME280;50266;57.446;26.936;2024-01-06T03:30:20;97776.41;;;-16.91;100.0
64025;BME280;50266;57.446;26.936;2024-01-06T03:31:20;97777.67;;;-16.95;100.0
64025;BME280;50266;57.446;26.936;2024-01-06T03:32:21;97775.52;;;-16.98;100.0
64025;BME280;50266;57.446;26.936;2024-01-06T03:33:20;97773.88;;;-17.01;100.0
64025;BME280;50266;57.446;26.936;2024-01-06T03:34:20;97778.33;;;-17.03;100.0
64025;BME280;50266;57.446;26.936;2024-01-06T03:35:20;97773.38;;;-17.09;100.0
64025;BME280;50266;57.446;26.936;2024-01-06T03:36:20;97773.95;;;-17.13;100.0
64025;BME280;50266;57.446;26.936;2024-01-06T03:37:20;97775.56;;;-17.18;100.0
64025;BME280;50266;57.446;26.936;2024-01-06T03:38:20;97773.61;;;-17.21;100.0
64025;BME280;50266;57.446;26.936;2024-01-06T03:39:20;97776.02;;;-17.25;100.0
64025;BME280;50266;57.446;26.936;2024-01-06T03:40:20;97782.22;;;-17.34;100.0
64025;BME280;50266;57.446;26.936;2024-01-06T03:41:20;97785.62;;;-17.36;100.0
64025;BME280;50266;57.446;26.936;2024-01-06T03:42:20;97786.12;;;-17.37;100.0
64025;BME280;50266;57.446;26.936;2024-01-06T03:43:20;97788.12;;;-17.45;100.0
64025;BME280;50266;57.446;26.936;2024-01-06T03:44:20;97793.55;;;-17.48;100.0
64025;BME280;50266;57.446;26.936;2024-01-06T03:45:21;97789.48;;;-17.48;100.0
64025;BME280;50266;57.446;26.936;2024-01-06T03:46:21;97792.39;;;-17.47;100.0
64025;BME280;50266;57.446;26.936;2024-01-06T03:47:21;97797.62;;;-17.51;100.0
64025;BME280;50266;57.446;26.936;2024-01-06T03:48:21;97793.73;;;-17.49;100.0
64025;BME280;50266;57.446;26.936;2024-01-06T03:49:21;97792.78;;;-17.49;100.0
64025;BME280;50266;57.446;26.936;2024-01-06T03:50:21;97801.84;;;-17.51;100.0
64025;BME280;50266;57.446;26.936;2024-01-06T03:51:21;97798.94;;;-17.51;100.0
64025;BME280;50266;57.446;26.936;2024-01-06T03:52:21;97802.2;;;-17.52;100.0
64025;BME280;50266;57.446;26.936;2024-01-06T03:53:21;97802.67;;;-17.52;100.0
64025;BME280;50266;57.446;26.936;2024-01-06T03:54:21;97803.12;;;-17.5;100.0
64025;BME280;50266;57.446;26.936;2024-01-06T03:55:22;97810.19;;;-17.52;100.0
64025;BME280;50266;57.446;26.936;2024-01-06T03:56:21;97813.49;;;-17.53;100.0
64025;BME280;50266;57.446;26.936;2024-01-06T03:57:21;97812.97;;;-17.56;100.0
64025;BME280;50266;57.446;26.936;2024-01-06T03:58:21;97817.73;;;-17.61;100.0
64025;BME280;50266;57.446;26.936;2024-01-06T03:59:21;97820.89;;;-17.62;100.0
64025;BME280;50266;57.446;26.936;2024-01-06T04:00:21;97817.62;;;-17.64;100.0
64025;BME280;50266;57.446;26.936;2024-01-06T04:01:21;97818.31;;;-17.63;100.0
64025;BME280;50266;57.446;26.936;2024-01-06T04:02:21;97822.45;;;-17.65;100.0
64025;BME280;50266;57.446;26.936;2024-01-06T04:03:21;97817.91;;;-17.63;100.0
64025;BME280;50266;57.446;26.936;2024-01-06T04:04:21;97825.66;;;-17.62;100.0
64025;BME280;50266;57.446;26.936;2024-01-06T04:05:21;97825.34;;;-17.61;100.0
64025;BME280;50266;57.446;26.936;2024-01-06T04:06:21;97829.45;;;-17.6;100.0
64025;BME280;50266;57.446;26.936;2024-01-06T04:07:21;97833.66;;;-17.61;100.0
64025;BME280;50266;57.446;26.936;2024-01-06T04:08:21;97829.7;;;-17.61;100.0
64025;BME280;50266;57.446;26.936;2024-01-06T04:09:22;97835.98;;;-17.63;100.0
64025;BME280;50266;57.446;26.936;2024-01-06T04:10:22;97834.44;;;-17.63;100.0
64025;BME280;50266;57.446;26.936;2024-01-06T04:11:22;97836.52;;;-17.61;100.0
64025;BME280;50266;57.446;26.936;2024-01-06T04:12:22;97838.56;;;-17.63;100.0
64025;BME280;50266;57.446;26.936;2024-01-06T04:13:22;97837.36;;;-17.63;100.0
64025;BME280;50266;57.446;26.936;2024-01-06T04:14:22;97840.55;;;-17.64;100.0
64025;BME280;50266;57.446;26.936;2024-01-06T04:15:22;97839.38;;;-17.67;100.0
64025;BME280;50266;57.446;26.936;2024-01-06T04:16:22;97836.59;;;-17.68;100.0
64025;BME280;50266;57.446;26.936;2024-01-06T04:17:22;97839.58;;;-17.67;100.0
64025;BME280;50266;57.446;26.936;2024-01-06T04:18:22;97843.41;;;-17.69;100.0
64025;BME280;50266;57.446;26.936;2024-01-06T04:19:22;97842.27;;;-17.71;100.0
64025;BME280;50266;57.446;26.936;2024-01-06T04:20:22;97846.87;;;-17.73;100.0
64025;BME280;50266;57.446;26.936;2024-01-06T04:21:22;97845.35;;;-17.69;100.0
64025;BME280;50266;57.446;26.936;2024-01-06T04:22:22;97846.16;;;-17.69;100.0
64025;BME280;50266;57.446;26.936;2024-01-06T04:23:22;97841.09;;;-17.74;100.0
64025;BME280;50266;57.446;26.936;2024-01-06T04:24:22;97844.52;;;-17.72;100.0
64025;BME280;50266;57.446;26.936;2024-01-06T04:25:22;97844.05;;;-17.71;100.0
64025;BME280;50266;57.446;26.936;2024-01-06T04:26:22;97845.66;;;-17.7;100.0
64025;BME280;50266;57.446;26.936;2024-01-06T04:27:22;97849.09;;;-17.7;100.0
64025;BME280;50266;57.446;26.936;2024-01-06T04:28:22;97852.55;;;-17.69;100.0
64025;BME280;50266;57.446;26.936;2024-01-06T04:29:22;97848.2;;;-17.73;100.0
64025;BME280;50266;57.446;26.936;2024-01-06T04:30:22;97849.94;;;-17.79;100.0
64025;BME280;50266;57.446;26.936;2024-01-06T04:31:22;97849.55;;;-17.77;100.0
64025;BME280;50266;57.446;26.936;2024-01-06T04:32:22;97843.89;;;-17.77;100.0
64025;BME280;50266;57.446;26.936;2024-01-06T04:33:22;97843.3;;;-17.74;100.0
64025;BME280;50266;57.446;26.936;2024-01-06T04:34:22;97848.12;;;-17.74;100.0
64025;BME280;50266;57.446;26.936;2024-01-06T04:35:22;97845.81;;;-17.76;100.0
64025;BME280;50266;57.446;26.936;2024-01-06T04:36:22;97849.25;;;-17.76;100.0
64025;BME280;50266;57.446;26.936;2024-01-06T04:37:22;97850.41;;;-17.84;100.0
64025;BME280;50266;57.446;26.936;2024-01-06T04:38:22;97856.58;;;-17.89;100.0
64025;BME280;50266;57.446;26.936;2024-01-06T04:39:22;97850.45;;;-17.85;100.0
64025;BME280;50266;57.446;26.936;2024-01-06T04:40:22;97853.61;;;-17.85;100.0
64025;BME280;50266;57.446;26.936;2024-01-06T04:41:22;97855.41;;;-17.82;100.0
64025;BME280;50266;57.446;26.936;2024-01-06T04:42:22;97855.48;;;-17.84;100.0
64025;BME280;50266;57.446;26.936;2024-01-06T04:43:22;97859.27;;;-17.9;100.0
64025;BME280;50266;57.446;26.936;2024-01-06T04:44:27;97858.38;;;-17.95;100.0
64025;BME280;50266;57.446;26.936;2024-01-06T04:45:24;97863.38;;;-17.92;100.0
64025;BME280;50266;57.446;26.936;2024-01-06T04:46:24;97857.83;;;-17.93;100.0
64025;BME280;50266;57.446;26.936;2024-01-06T04:47:24;97860.58;;;-17.93;100.0
64025;BME280;50266;57.446;26.936;2024-01-06T04:48:24;97861.97;;;-17.92;100.0
64025;BME280;50266;57.446;26.936;2024-01-06T04:49:24;97862.75;;;-17.92;100.0
64025;BME280;50266;57.446;26.936;2024-01-06T04:50:24;97865.79;;;-17.88;100.0
64025;BME280;50266;57.446;26.936;2024-01-06T04:51:24;97867.56;;;-17.92;100.0
64025;BME280;50266;57.446;26.936;2024-01-06T04:52:24;97869.95;;;-17.97;100.0
64025;BME280;50266;57.446;26.936;2024-01-06T04:53:24;97872.17;;;-18.0;100.0
64025;BME280;50266;57.446;26.936;2024-01-06T04:54:24;97874.67;;;-18.01;100.0
64025;BME280;50266;57.446;26.936;2024-01-06T04:55:24;97874.69;;;-17.98;100.0
64025;BME280;50266;57.446;26.936;2024-01-06T04:56:24;97879.97;;;-18.03;100.0
64025;BME280;50266;57.446;26.936;2024-01-06T04:57:25;97873.44;;;-18.02;100.0
64025;BME280;50266;57.446;26.936;2024-01-06T04:58:25;97876.69;;;-18.06;100.0
64025;BME280;50266;57.446;26.936;2024-01-06T04:59:25;97876.2;;;-18.11;100.0
64025;BME280;50266;57.446;26.936;2024-01-06T05:00:25;97878.0;;;-18.04;100.0
64025;BME280;50266;57.446;26.936;2024-01-06T05:01:25;97880.75;;;-18.01;100.0
64025;BME280;50266;57.446;26.936;2024-01-06T05:02:25;97886.52;;;-18.01;100.0
64025;BME280;50266;57.446;26.936;2024-01-06T05:03:25;97884.96;;;-18.02;100.0
64025;BME280;50266;57.446;26.936;2024-01-06T05:04:25;97886.61;;;-18.01;100.0
64025;BME280;50266;57.446;26.936;2024-01-06T05:05:25;97886.38;;;-18.03;100.0
64025;BME280;50266;57.446;26.936;2024-01-06T05:06:25;97890.49;;;-18.05;100.0
64025;BME280;50266;57.446;26.936;2024-01-06T05:07:25;97895.45;;;-18.07;100.0
64025;BME280;50266;57.446;26.936;2024-01-06T05:08:25;97897.04;;;-18.07;100.0
64025;BME280;50266;57.446;26.936;2024-01-06T05:09:25;97902.11;;;-18.12;100.0
64025;BME280;50266;57.446;26.936;2024-01-06T05:10:25;97904.0;;;-18.08;100.0